Time;durP1;ratioP1;P1;durP2;ratioP2;P2;SDS_P1;SDS_P2;PMS_P1;PMS_P2;Temp;Humidity;BMP_temperature;BMP_pressure;BME280_temperature;BME280_humidity;BME280_pressure;Samples;Min_cycle;Max_cycle;Signal;HPM_P1;HPM_P2
2021/10/14 03:24:22;;;;;;;;;;;;;;;8.08;100.00;100675.75;4968827;28;20018;-80
2021/10/14 03:26:48;;;;;;;;;;;;;;;8.08;100.00;100686.31;4972131;28;20375;-81
2021/10/14 03:29:13;;;;;;;;;;;;;;;8.11;100.00;100690.69;4956823;28;19918;-79
2021/10/14 03:31:38;;;;;;;;;;;;;;;8.13;100.00;100691.50;4974240;28;20385;-80
2021/10/14 03:34:03;;;;;;;;;;;;;;;8.14;100.00;100688.84;4973917;28;19918;-80
2021/10/14 03:36:29;;;;;;;;;;;;;;;8.11;100.00;100686.25;4955302;28;20565;-80
2021/10/14 03:38:54;;;;;;;;;;;;;;;8.16;100.00;100687.03;4973868;28;19918;-80
2021/10/14 03:41:19;;;;;;;;;;;;;;;8.16;100.00;100687.03;4973648;28;19918;-80
2021/10/14 03:43:45;;;;;;;;;;;;;;;8.21;100.00;100684.31;4973767;28;20004;-80
2021/10/14 03:46:10;;;;;;;;;;;;;;;8.23;100.00;100689.56;4973753;28;19956;-80
2021/10/14 03:48:35;;;;;;;;;;;;;;;8.26;100.00;100684.22;4973716;28;20009;-80
2021/10/14 03:51:00;;;;;;;;;;;;;;;8.14;100.00;100683.56;4973220;28;19923;-79
2021/10/14 03:53:26;;;;;;;;;;;;;;;6.21;100.00;100690.75;4972208;28;19949;-80
2021/10/14 03:55:51;;;;;;;;;;;;;;;5.16;100.00;100694.22;4973570;28;19929;-81
2021/10/14 03:58:16;;;;;;;;;;;;;;;4.71;100.00;100690.94;4973609;28;20381;-80
2021/10/14 04:00:41;;;;;;;;;;;;;;;4.42;99.09;100691.03;4973528;28;19922;-80
2021/10/14 04:03:07;;;;;;;;;;;;;;;4.17;97.82;100702.47;4973498;28;19922;-81
2021/10/14 04:05:32;;;;;;;;;;;;;;;3.89;97.04;100690.28;4973415;28;19918;-80
2021/10/14 04:07:57;;;;;;;;;;;;;;;3.80;97.03;100697.28;4972140;28;19918;-79
2021/10/14 04:10:23;;;;;;;;;;;;;;;3.88;100.00;100693.78;4973284;28;19993;-80
2021/10/14 04:12:48;;;;;;;;;;;;;;;3.93;100.00;100689.41;4973383;28;19960;-80
2021/10/14 04:15:14;;;;;;;;;;;;;;;3.80;100.00;100691.19;4973606;28;19925;-81
2021/10/14 04:17:39;;;;;;;;;;;;;;;3.63;100.00;100696.41;4973287;28;19925;-81
2021/10/14 04:20:05;;;;;;;;;;;;;;;3.51;100.00;100699.03;4973223;28;19918;-80
2021/10/14 04:22:30;;;;;;;;;;;;;;;3.39;100.00;100700.75;4972199;28;19922;-80
2021/10/14 04:24:55;;;;;;;;;;;;;;;3.32;100.00;100706.88;4972972;28;19922;-81
2021/10/14 04:27:21;;;;;;;;;;;;;;;3.22;100.00;100702.50;4973331;28;20021;-81
2021/10/14 04:29:46;;;;;;;;;;;;;;;3.15;100.00;100709.47;4973206;28;20277;-81
2021/10/14 04:32:11;;;;;;;;;;;;;;;3.06;100.00;100712.06;4973395;28;19918;-80
2021/10/14 04:34:37;;;;;;;;;;;;;;;3.01;100.00;100704.19;4973207;28;19965;-80
2021/10/14 04:37:05;;;;;;;;;;;;;;;2.96;99.93;100705.06;4971866;28;19929;-80
2021/10/14 04:39:31;;;;;;;;;;;;;;;2.85;99.26;100702.41;4955750;28;19925;-80
2021/10/14 04:41:56;;;;;;;;;;;;;;;2.84;99.13;100704.16;4972947;28;19918;-80
2021/10/14 04:44:21;;;;;;;;;;;;;;;2.72;98.07;100707.56;4955908;28;19922;-81
2021/10/14 04:46:46;;;;;;;;;;;;;;;2.62;97.95;100700.56;4973143;28;20276;-81
2021/10/14 04:49:12;;;;;;;;;;;;;;;2.60;97.83;100706.66;4972950;28;19929;-81
2021/10/14 04:51:37;;;;;;;;;;;;;;;2.56;97.45;100705.78;4971736;28;19929;-81
2021/10/14 04:54:02;;;;;;;;;;;;;;;2.51;97.26;100708.38;4972934;28;19918;-81
2021/10/14 07:54:11;;;;;;;;;;;;;;;3.88;89.96;100693.78;5156692;23;20004;-79
2021/10/14 07:56:36;;;;;;;;;;;;;;;3.94;90.04;100701.63;4972949;28;20266;-80
2021/10/14 07:59:02;;;;;;;;;;;;;;;3.94;89.81;100701.63;4948079;28;19914;-80
2021/10/14 08:01:27;;;;;;;;;;;;;;;3.99;89.66;100697.28;4973262;28;19965;-80
2021/10/14 08:03:52;;;;;;;;;;;;;;;4.01;89.48;100698.16;4973109;28;19918;-80
2021/10/14 08:06:18;;;;;;;;;;;;;;;4.02;89.39;100699.91;4973613;28;20412;-80
2021/10/14 08:08:43;;;;;;;;;;;;;;;4.88;92.46;100704.88;4971952;28;19918;-81
2021/10/14 08:11:08;;;;;;;;;;;;;;;6.68;92.79;100694.56;4973314;28;20361;-80
2021/10/14 08:13:34;;;;;;;;;;;;;;;6.16;89.17;100695.19;4973283;28;19953;-80
2021/10/14 08:16:00;;;;;;;;;;;;;;;5.35;90.91;100700.22;4973212;28;19918;-80
2021/10/14 08:18:26;;;;;;;;;;;;;;;6.71;94.73;100701.59;4972280;28;20258;-79
2021/10/14 08:20:53;;;;;;;;;;;;;;;7.69;90.63;100704.59;4973155;28;19953;-78
2021/10/14 08:23:18;;;;;;;;;;;;;;;7.09;89.24;100708.97;4971411;28;20381;-79
2021/10/14 08:25:44;;;;;;;;;;;;;;;6.87;90.96;100711.03;4973133;28;19934;-80
2021/10/14 08:28:09;;;;;;;;;;;;;;;5.27;90.15;100709.91;4973329;28;20008;-80
2021/10/14 08:30:34;;;;;;;;;;;;;;;4.72;89.07;100716.31;4972666;28;19922;-80
2021/10/14 08:33:00;;;;;;;;;;;;;;;4.44;88.15;100710.31;4973102;28;19930;-80
2021/10/14 08:35:25;;;;;;;;;;;;;;;4.31;88.30;100709.47;4955757;28;19954;-80
2021/10/14 08:37:50;;;;;;;;;;;;;;;4.26;88.01;100713.81;4972903;28;19921;-81
2021/10/14 08:40:16;;;;;;;;;;;;;;;4.19;88.26;100705.97;4977233;28;19942;-79
2021/10/14 08:42:42;;;;;;;;;;;;;;;4.19;88.54;100716.47;4976867;28;19925;-79
2021/10/14 08:45:08;;;;;;;;;;;;;;;4.05;87.70;100712.97;4976935;28;19922;-80
2021/10/14 08:47:34;;;;;;;;;;;;;;;3.98;87.95;100722.63;4976755;28;20420;-80
2021/10/14 08:49:59;;;;;;;;;;;;;;;3.90;87.18;100716.50;4959577;28;19926;-80
2021/10/14 08:52:25;;;;;;;;;;;;;;;4.04;88.25;100724.38;4975410;28;19945;-80
2021/10/14 08:54:51;;;;;;;;;;;;;;;3.91;87.45;100730.47;4990663;28;20328;-79
2021/10/14 08:57:16;;;;;;;;;;;;;;;3.86;87.85;100722.66;4978702;28;20368;-79
2021/10/14 08:59:41;;;;;;;;;;;;;;;3.83;87.83;100717.41;4978445;28;19944;-80
2021/10/14 09:02:10;;;;;;;;;;;;;;;3.77;87.74;100722.66;4996056;28;19961;-79
2021/10/14 09:04:38;;;;;;;;;;;;;;;3.77;87.44;100718.25;4996185;28;20384;-80
2021/10/14 09:07:08;;;;;;;;;;;;;;;3.73;86.97;100713.88;4969267;28;19930;-79
2021/10/14 09:09:37;;;;;;;;;;;;;;;3.72;87.56;100713.88;4995281;28;19922;-79
2021/10/14 09:12:04;;;;;;;;;;;;;;;3.80;87.97;100710.41;4993252;28;19922;-80
2021/10/14 09:14:29;;;;;;;;;;;;;;;3.64;87.74;100712.16;4995738;28;20387;-80
2021/10/14 09:16:54;;;;;;;;;;;;;;;3.63;87.01;100706.91;4970289;28;19918;-79
2021/10/14 09:19:20;;;;;;;;;;;;;;;3.68;87.43;100710.41;4970141;28;19972;-80
2021/10/14 09:21:48;;;;;;;;;;;;;;;3.66;87.01;100712.16;4977710;28;19921;-80
2021/10/14 09:24:25;;;;;;;;;;;;;;;3.55;87.00;100719.13;4994483;28;19968;-79
2021/10/14 09:26:51;;;;;;;;;;;;;;;3.62;86.60;100715.63;4994766;28;20016;-80
2021/10/14 09:29:19;;;;;;;;;;;;;;;3.60;87.88;100707.75;4995274;28;20028;-79
2021/10/14 09:31:46;;;;;;;;;;;;;;;3.58;86.95;100706.91;4995580;28;19997;-79
2021/10/14 09:34:22;;;;;;;;;;;;;;;3.56;87.01;100703.41;4995377;28;19918;-79
2021/10/14 09:36:48;;;;;;;;;;;;;;;3.48;86.80;100704.25;4958538;28;20385;-79
2021/10/14 09:39:14;;;;;;;;;;;;;;;3.45;86.90;100705.16;4974754;28;19922;-80
2021/10/14 09:41:40;;;;;;;;;;;;;;;3.48;86.76;100704.25;4975625;28;20400;-79
2021/10/14 09:44:06;;;;;;;;;;;;;;;3.53;86.87;100697.31;4976096;28;19972;-80
2021/10/14 09:46:31;;;;;;;;;;;;;;;3.45;86.78;100695.53;4975874;28;19918;-80
2021/10/14 09:48:57;;;;;;;;;;;;;;;3.40;86.97;100694.66;4975449;28;20291;-80
2021/10/14 09:51:22;;;;;;;;;;;;;;;3.42;86.79;100695.53;4975560;28;19922;-79
2021/10/14 09:53:47;;;;;;;;;;;;;;;3.50;87.72;100692.06;4974275;28;20013;-79
2021/10/14 09:56:13;;;;;;;;;;;;;;;3.40;86.87;100689.44;4975699;28;20289;-80
2021/10/14 09:58:38;;;;;;;;;;;;;;;3.40;86.49;100678.94;4975855;28;19926;-80
2021/10/14 10:01:04;;;;;;;;;;;;;;;3.35;86.32;100677.19;4975659;28;19975;-80
2021/10/14 10:03:31;;;;;;;;;;;;;;;3.49;87.55;100680.69;4974560;28;20016;-79
2021/10/14 10:05:59;;;;;;;;;;;;;;;3.43;86.79;100671.09;4958103;28;19965;-80
2021/10/14 10:08:29;;;;;;;;;;;;;;;3.30;86.15;100674.56;4955842;28;19934;-80
2021/10/14 10:10:57;;;;;;;;;;;;;;;3.40;87.02;100670.22;4975534;28;19919;-79
2021/10/14 10:13:24;;;;;;;;;;;;;;;3.28;86.20;100671.06;4958027;28;19961;-79
2021/10/14 10:15:49;;;;;;;;;;;;;;;3.23;86.32;100668.44;4949833;28;20501;-80
2021/10/14 10:18:27;;;;;;;;;;;;;;;3.28;86.67;100671.94;4957879;28;19922;-79
2021/10/14 10:20:53;;;;;;;;;;;;;;;3.21;86.11;100670.19;4949882;28;19972;-81
2021/10/14 10:23:47;;;;;;;;;;;;;;;3.29;86.13;100662.34;4973745;28;19922;-79
2021/10/14 10:26:31;;;;;;;;;;;;;;;3.28;86.02;100665.81;4975092;28;19918;-79
2021/10/14 10:28:57;;;;;;;;;;;;;;;3.26;86.43;100668.44;4974372;28;19929;-80
2021/10/14 10:31:22;;;;;;;;;;;;;;;3.17;85.73;100662.31;4974525;28;20009;-79
2021/10/14 10:33:49;;;;;;;;;;;;;;;3.12;85.50;100658.84;4974292;28;20001;-79
2021/10/14 10:36:42;;;;;;;;;;;;;;;3.11;85.25;100659.69;4973379;28;21342;-79
2021/10/14 10:39:08;;;;;;;;;;;;;;;3.07;85.57;100657.06;4972328;28;20343;-80
2021/10/14 10:41:33;;;;;;;;;;;;;;;3.15;86.10;100659.69;4974771;28;19926;-79
2021/10/14 10:43:59;;;;;;;;;;;;;;;3.15;85.78;100661.47;4957263;28;19977;-80
2021/10/14 10:46:31;;;;;;;;;;;;;;;3.11;85.40;100654.47;4974644;28;19953;-79
2021/10/14 10:49:16;;;;;;;;;;;;;;;3.11;85.29;100652.69;4974540;28;19981;-79
2021/10/14 10:51:41;;;;;;;;;;;;;;;3.09;84.61;100655.34;4956748;28;19926;-79
2021/10/14 10:54:06;;;;;;;;;;;;;;;3.02;84.30;100657.94;4965504;28;20432;-79
2021/10/14 10:56:34;;;;;;;;;;;;;;;3.05;84.60;100642.25;4955107;29;19926;-79
2021/10/14 10:59:00;;;;;;;;;;;;;;;3.08;84.27;100642.25;4953634;29;19926;-81
2021/10/14 11:01:26;;;;;;;;;;;;;;;3.05;84.58;100643.09;4952957;28;19923;-79
2021/10/14 11:04:01;;;;;;;;;;;;;;;3.03;84.38;100638.72;4954995;29;20006;-79
2021/10/14 11:06:28;;;;;;;;;;;;;;;3.11;85.12;100639.59;4954445;29;19926;-79
2021/10/14 11:08:57;;;;;;;;;;;;;;;3.17;85.91;100633.50;4953701;29;20742;-79
2021/10/14 11:11:23;;;;;;;;;;;;;;;3.25;86.97;100629.16;4935756;29;19922;-79
2021/10/14 11:13:52;;;;;;;;;;;;;;;3.33;87.47;100626.53;4954960;29;20421;-79
2021/10/14 11:16:18;;;;;;;;;;;;;;;3.34;87.39;100623.91;4954008;29;19973;-78
2021/10/14 11:18:46;;;;;;;;;;;;;;;3.42;88.41;100624.78;4954738;29;20297;-79
2021/10/14 11:21:12;;;;;;;;;;;;;;;3.25;86.76;100623.91;4953798;29;19981;-79
2021/10/14 11:23:42;;;;;;;;;;;;;;;3.21;85.78;100623.03;4953250;29;19921;-79
2021/10/14 11:26:07;;;;;;;;;;;;;;;3.64;86.38;100612.53;4954319;29;19922;-80
2021/10/14 11:28:49;;;;;;;;;;;;;;;3.24;86.06;100602.09;4954154;29;19982;-79
2021/10/14 11:31:22;;;;;;;;;;;;;;;3.08;86.01;100598.59;4954500;29;20462;-80
2021/10/14 11:33:47;;;;;;;;;;;;;;;3.21;85.98;100590.75;4954264;29;19929;-80
2021/10/14 11:36:13;;;;;;;;;;;;;;;3.09;85.55;100589.88;4954495;29;19922;-80
2021/10/14 11:38:38;;;;;;;;;;;;;;;3.06;85.21;100588.97;4953406;29;19930;-79
2021/10/14 11:41:03;;;;;;;;;;;;;;;3.09;85.44;100589.88;4954433;29;19974;-80
2021/10/14 11:43:30;;;;;;;;;;;;;;;3.13;85.17;100582.88;4954363;29;19974;-80
2021/10/14 11:45:56;;;;;;;;;;;;;;;3.15;85.19;100583.75;4954355;29;19926;-80
2021/10/14 11:48:26;;;;;;;;;;;;;;;3.27;85.82;100577.63;4954408;29;19918;-80
2021/10/14 11:51:08;;;;;;;;;;;;;;;3.08;84.89;100568.94;4952696;29;19919;-79
2021/10/14 11:53:35;;;;;;;;;;;;;;;2.94;84.76;100568.91;4955479;28;19926;-80
2021/10/14 11:56:04;;;;;;;;;;;;;;;3.20;86.00;100561.03;4973535;28;19968;-80
2021/10/14 11:58:29;;;;;;;;;;;;;;;3.18;85.51;100568.03;4973435;28;19922;-80
2021/10/14 12:00:56;;;;;;;;;;;;;;;3.08;84.81;100556.69;4955529;28;20041;-80
2021/10/14 12:03:22;;;;;;;;;;;;;;;2.99;84.32;100563.69;4972472;28;19914;-80
2021/10/14 12:05:47;;;;;;;;;;;;;;;3.18;86.16;100561.94;4973158;28;19922;-80
2021/10/14 12:08:13;;;;;;;;;;;;;;;3.15;84.97;100554.09;4972386;28;19918;-80
2021/10/14 12:10:41;;;;;;;;;;;;;;;2.97;83.95;100555.81;4973170;28;20407;-80
2021/10/14 12:13:06;;;;;;;;;;;;;;;2.92;83.77;100549.72;4972835;28;19922;-80
2021/10/14 12:15:32;;;;;;;;;;;;;;;3.11;84.33;100547.09;4973236;28;20285;-80
2021/10/14 12:17:58;;;;;;;;;;;;;;;2.96;83.92;100542.72;4972906;28;20278;-80
2021/10/14 12:20:24;;;;;;;;;;;;;;;2.96;83.79;100542.72;4973459;28;19973;-80
2021/10/14 12:22:51;;;;;;;;;;;;;;;3.01;83.80;100540.97;4946550;28;19926;-80
2021/10/14 12:25:34;;;;;;;;;;;;;;;2.95;83.52;100531.34;4973242;28;19928;-80
2021/10/14 12:28:00;;;;;;;;;;;;;;;2.94;83.16;100529.63;4947910;28;19932;-80
2021/10/14 12:30:25;;;;;;;;;;;;;;;2.97;83.67;100532.25;4947717;28;19974;-80
2021/10/14 12:32:52;;;;;;;;;;;;;;;3.08;84.33;100529.66;4972914;28;19922;-80
2021/10/14 12:35:18;;;;;;;;;;;;;;;3.03;83.50;100524.41;4972671;28;20048;-80
2021/10/14 12:37:43;;;;;;;;;;;;;;;3.22;84.64;100513.91;4971798;28;20009;-80
2021/10/14 12:40:09;;;;;;;;;;;;;;;2.99;83.11;100517.41;4972643;28;19926;-80
2021/10/14 12:43:01;;;;;;;;;;;;;;;3.03;83.06;100518.28;4972993;28;19988;-80
2021/10/14 12:46:13;;;;;;;;;;;;;;;3.22;83.64;100513.91;4971243;28;20009;-80
2021/10/14 12:51:21;;;;;;;;;;;;;;;3.43;87.44;100507.75;4972849;28;20289;-80
2021/10/14 12:54:05;;;;;;;;;;;;;;;3.42;90.73;100500.78;4953976;28;20289;-80
2021/10/14 12:56:38;;;;;;;;;;;;;;;3.58;96.52;100499.84;4972381;28;19922;-80
2021/10/14 12:59:07;;;;;;;;;;;;;;;3.80;100.00;100492.81;4972876;28;19922;-79
2021/10/14 13:01:35;;;;;;;;;;;;;;;3.99;100.00;100487.50;4972814;28;19954;-80
2021/10/14 13:04:01;;;;;;;;;;;;;;;4.21;100.00;100479.50;4972320;28;19929;-80
2021/10/14 13:06:26;;;;;;;;;;;;;;;4.51;100.00;100487.16;4972301;28;20305;-79
2021/10/14 13:09:03;;;;;;;;;;;;;;;4.80;100.00;100475.56;4971392;28;20070;-80
2021/10/14 13:11:31;;;;;;;;;;;;;;;5.20;100.00;100476.97;4972884;28;19976;-80
2021/10/14 13:13:56;;;;;;;;;;;;;;;5.44;100.00;100481.09;4972673;28;19922;-80
2021/10/14 13:16:22;;;;;;;;;;;;;;;5.66;100.00;100475.63;4972664;28;19918;-80
2021/10/14 13:18:47;;;;;;;;;;;;;;;5.77;100.00;100471.09;4972635;28;19920;-79
2021/10/14 13:21:12;;;;;;;;;;;;;;;5.91;100.00;100465.66;4972525;28;19997;-79
2021/10/14 13:23:37;;;;;;;;;;;;;;;5.97;100.00;100466.50;4971355;28;19918;-79
2021/10/14 13:26:03;;;;;;;;;;;;;;;6.07;100.00;100461.13;4975427;28;20054;-80
2021/10/14 13:28:30;;;;;;;;;;;;;;;6.20;100.00;100457.41;4976388;28;19922;-80
2021/10/14 13:30:59;;;;;;;;;;;;;;;6.27;100.00;100463.44;4975869;28;19925;-80
2021/10/14 13:33:24;;;;;;;;;;;;;;;6.38;100.00;100452.75;4976022;28;19925;-79
2021/10/14 13:35:50;;;;;;;;;;;;;;;6.43;100.00;100451.81;4958638;28;20340;-79
2021/10/14 13:38:17;;;;;;;;;;;;;;;6.45;100.00;100444.75;4974633;28;19925;-80
2021/10/14 13:40:50;;;;;;;;;;;;;;;6.52;100.00;100442.91;4958564;28;20297;-79
2021/10/14 13:43:32;;;;;;;;;;;;;;;6.56;100.00;100439.34;4972921;28;19925;-80
2021/10/14 13:45:57;;;;;;;;;;;;;;;6.59;100.00;100433.13;4975627;28;20008;-79
2021/10/14 13:48:23;;;;;;;;;;;;;;;6.65;100.00;100431.28;4975766;28;20024;-80
2021/10/14 13:50:48;;;;;;;;;;;;;;;6.67;100.00;100425.97;4975414;28;19918;-80
2021/10/14 13:53:14;;;;;;;;;;;;;;;6.73;100.00;100423.22;4973776;28;19925;-79
2021/10/14 13:55:39;;;;;;;;;;;;;;;6.80;100.00;100421.38;4956461;29;19923;-79
2021/10/14 13:58:05;;;;;;;;;;;;;;;6.84;100.00;100412.53;4956205;29;20013;-79
2021/10/14 14:00:30;;;;;;;;;;;;;;;6.88;100.00;100408.94;4956388;29;19997;-80
2021/10/14 14:02:55;;;;;;;;;;;;;;;6.93;100.00;100409.72;4938775;29;19922;-80
2021/10/14 14:05:21;;;;;;;;;;;;;;;6.95;100.00;100407.94;4956209;29;20021;-79
2021/10/14 14:07:46;;;;;;;;;;;;;;;6.98;100.00;100407.00;4955074;29;19965;-79
2021/10/14 14:10:11;;;;;;;;;;;;;;;7.02;100.00;100404.31;4955960;29;19925;-80
2021/10/14 14:12:37;;;;;;;;;;;;;;;7.09;100.00;100407.69;4956049;29;19928;-79
2021/10/14 14:15:02;;;;;;;;;;;;;;;7.09;100.00;100403.28;4955072;29;19922;-80
2021/10/14 14:17:28;;;;;;;;;;;;;;;7.12;100.00;100397.09;4955976;29;20262;-79
2021/10/14 14:19:53;;;;;;;;;;;;;;;7.17;100.00;100399.63;4956022;29;19925;-80
2021/10/14 14:22:18;;;;;;;;;;;;;;;7.22;100.00;100389.88;4954598;29;20013;-79
2021/10/14 14:24:43;;;;;;;;;;;;;;;7.23;100.00;100388.97;4955970;29;19930;-79
2021/10/14 14:27:09;;;;;;;;;;;;;;;6.31;100.00;100384.41;4955793;29;20404;-79
2021/10/14 14:29:34;;;;;;;;;;;;;;;5.43;100.00;100380.34;4955657;29;20061;-79
2021/10/14 14:31:59;;;;;;;;;;;;;;;4.95;100.00;100377.41;4955697;29;19926;-79
2021/10/14 14:34:25;;;;;;;;;;;;;;;4.71;100.00;100378.53;4955814;29;20476;-79
2021/10/14 14:36:50;;;;;;;;;;;;;;;4.48;100.00;100386.59;4955294;28;20289;-80
2021/10/14 14:39:16;;;;;;;;;;;;;;;4.26;100.00;100371.03;4954327;29;19965;-79
2021/10/14 14:41:41;;;;;;;;;;;;;;;4.18;100.00;100373.72;4955410;29;19918;-80
2021/10/14 14:44:07;;;;;;;;;;;;;;;4.14;100.00;100373.75;4955330;29;19926;-79
2021/10/14 14:46:33;;;;;;;;;;;;;;;4.07;100.00;100369.41;4955011;29;20274;-79
2021/10/14 14:48:59;;;;;;;;;;;;;;;3.94;100.00;100374.75;4955130;29;19927;-79
2021/10/14 14:51:24;;;;;;;;;;;;;;;3.86;100.00;100370.41;4955366;29;20290;-80
2021/10/14 14:53:50;;;;;;;;;;;;;;;3.82;100.00;100370.44;4953765;28;19926;-80
2021/10/14 14:56:15;;;;;;;;;;;;;;;3.80;100.00;100374.81;4954426;29;19969;-79
2021/10/14 14:58:41;;;;;;;;;;;;;;;3.74;100.00;100359.13;4954951;29;19958;-79
2021/10/14 15:01:06;;;;;;;;;;;;;;;3.61;100.00;100370.56;4954943;29;20437;-80
2021/10/14 15:03:32;;;;;;;;;;;;;;;3.59;100.00;100361.81;4955052;29;20366;-79
2021/10/14 15:05:58;;;;;;;;;;;;;;;3.55;100.00;100362.72;4954695;29;19930;-79
2021/10/14 15:08:23;;;;;;;;;;;;;;;3.55;100.00;100365.34;4953700;29;19928;-79
2021/10/14 15:10:48;;;;;;;;;;;;;;;3.56;100.00;100364.50;4954490;29;19953;-80
2021/10/14 15:13:14;;;;;;;;;;;;;;;3.49;99.63;100360.13;4954673;29;19924;-80
2021/10/14 15:15:40;;;;;;;;;;;;;;;3.43;98.92;100353.16;4937682;29;20279;-80
2021/10/14 15:18:06;;;;;;;;;;;;;;;3.50;98.08;100356.66;4954687;29;19966;-80
2021/10/14 15:20:31;;;;;;;;;;;;;;;3.44;97.51;100355.78;4954874;29;20288;-80
2021/10/14 15:22:56;;;;;;;;;;;;;;;3.48;97.17;100345.28;4942672;29;19922;-80
2021/10/14 15:25:21;;;;;;;;;;;;;;;3.36;95.95;100346.22;4954069;29;20072;-80
2021/10/14 15:27:47;;;;;;;;;;;;;;;3.33;95.57;100344.47;4954734;29;19969;-80
2021/10/14 15:30:12;;;;;;;;;;;;;;;3.30;95.32;100352.34;4936732;29;19933;-79
2021/10/14 15:32:37;;;;;;;;;;;;;;;3.29;94.85;100348.00;4954293;29;19918;-80
2021/10/14 15:35:03;;;;;;;;;;;;;;;3.16;94.07;100341.94;4953985;29;20428;-79
2021/10/14 15:37:29;;;;;;;;;;;;;;;3.16;93.58;100341.06;4952786;29;19922;-80
2021/10/14 15:39:55;;;;;;;;;;;;;;;3.09;92.76;100333.25;4954103;29;19922;-80
2021/10/14 15:42:24;;;;;;;;;;;;;;;3.09;92.67;100350.69;4954389;29;19929;-80
2021/10/14 15:44:50;;;;;;;;;;;;;;;3.09;92.35;100338.50;4953978;29;19940;-80
2021/10/14 15:47:15;;;;;;;;;;;;;;;3.06;91.60;100341.13;4953640;28;20362;-80
2021/10/14 15:49:40;;;;;;;;;;;;;;;3.02;91.69;100339.38;4953762;29;19927;-80
2021/10/14 15:52:05;;;;;;;;;;;;;;;3.00;91.10;100355.94;4953959;29;19919;-80
2021/10/14 15:54:31;;;;;;;;;;;;;;;2.99;91.60;100338.50;4953239;28;20393;-80
2021/10/14 15:56:56;;;;;;;;;;;;;;;3.11;92.10;100334.97;4936505;29;19918;-80
2021/10/14 15:59:21;;;;;;;;;;;;;;;3.07;92.06;100334.97;4953804;29;19922;-80
2021/10/14 16:01:46;;;;;;;;;;;;;;;3.09;92.17;100328.00;4953844;29;19925;-79
2021/10/14 16:04:12;;;;;;;;;;;;;;;3.02;91.33;100336.75;4953663;29;19976;-80
2021/10/14 16:06:37;;;;;;;;;;;;;;;3.00;91.66;100335.00;4953537;29;19922;-81
2021/10/14 16:09:02;;;;;;;;;;;;;;;3.01;91.43;100335.00;4934660;29;19933;-80
2021/10/14 16:11:28;;;;;;;;;;;;;;;3.04;90.96;100332.38;4953667;29;19923;-80
2021/10/14 16:13:53;;;;;;;;;;;;;;;2.94;90.92;100332.44;4936785;29;19918;-79
2021/10/14 16:16:19;;;;;;;;;;;;;;;2.88;90.08;100335.91;4953678;29;19933;-79
2021/10/14 16:18:44;;;;;;;;;;;;;;;2.88;90.33;100330.69;4953800;29;19926;-80
2021/10/14 16:21:10;;;;;;;;;;;;;;;2.91;89.94;100330.69;4953938;29;20297;-80
2021/10/14 16:23:35;;;;;;;;;;;;;;;2.86;89.93;100333.31;4952294;29;20005;-79
2021/10/14 16:26:01;;;;;;;;;;;;;;;2.76;89.59;100331.59;4953382;29;19918;-79
2021/10/14 16:28:27;;;;;;;;;;;;;;;2.75;89.68;100334.22;4953114;29;19933;-80
2021/10/14 16:30:59;;;;;;;;;;;;;;;2.75;89.91;100334.22;4936266;29;19922;-79
2021/10/14 16:35:49;;;;;;;;;;;;;;;2.78;89.71;100323.75;4953622;29;19922;-80
2021/10/14 16:38:15;;;;;;;;;;;;;;;2.77;89.77;100324.59;4935161;29;19942;-80
2021/10/14 16:40:41;;;;;;;;;;;;;;;2.82;89.81;100333.31;4953251;29;20271;-79
2021/10/14 16:43:06;;;;;;;;;;;;;;;2.75;89.63;100328.97;4936279;29;20219;-79
2021/10/14 16:45:31;;;;;;;;;;;;;;;2.72;89.42;100322.00;4953702;29;20366;-80
2021/10/14 16:47:56;;;;;;;;;;;;;;;2.70;89.39;100329.00;4935667;29;19962;-79
2021/10/14 16:50:22;;;;;;;;;;;;;;;2.67;89.27;100324.63;4953503;29;19973;-78
2021/10/14 16:52:48;;;;;;;;;;;;;;;2.65;89.47;100325.50;4951765;29;19930;-79
2021/10/14 16:55:14;;;;;;;;;;;;;;;2.59;89.33;100325.53;4969653;28;19922;-79
2021/10/14 16:57:41;;;;;;;;;;;;;;;2.63;89.47;100316.78;4971883;28;19933;-79
2021/10/14 17:00:08;;;;;;;;;;;;;;;2.59;88.80;100315.06;4958787;28;20357;-79
2021/10/14 17:02:33;;;;;;;;;;;;;;;2.50;88.62;100318.53;4975685;28;19989;-79
2021/10/14 17:04:58;;;;;;;;;;;;;;;2.52;88.68;100315.06;4975916;28;20370;-79
2021/10/14 17:07:24;;;;;;;;;;;;;;;2.54;88.40;100309.84;4975173;28;20742;-79
2021/10/14 17:09:51;;;;;;;;;;;;;;;2.52;88.04;100311.56;4976147;28;19926;-78
2021/10/14 17:12:16;;;;;;;;;;;;;;;2.51;88.06;100315.06;4949960;28;19922;-79
2021/10/14 17:14:41;;;;;;;;;;;;;;;2.49;87.52;100306.31;4976503;28;19918;-79
2021/10/14 17:17:07;;;;;;;;;;;;;;;2.48;87.34;100305.47;4976283;28;20076;-79
2021/10/14 17:22:06;;;;;;;;;;;;;;;2.47;87.87;100300.25;4976426;28;19922;-80
2021/10/14 17:37:56;;;;;;;;;;;;;;;2.31;87.38;100308.13;4974579;28;19926;-79
2021/10/14 17:40:22;;;;;;;;;;;;;;;2.22;87.36;100305.50;4975062;28;19926;-80
2021/10/14 17:43:21;;;;;;;;;;;;;;;2.24;87.23;100302.91;4949924;28;19924;-79
2021/10/14 17:46:31;;;;;;;;;;;;;;;2.24;87.50;100301.13;4971806;28;19926;-80
2021/10/14 17:48:24;;;;;;;;;;;;;;;2.24;87.43;100300.28;4964457;28;20424;-79
2021/10/14 17:50:50;;;;;;;;;;;;;;;2.24;87.80;100298.53;4957500;28;19954;-79
2021/10/14 17:53:15;;;;;;;;;;;;;;;2.25;87.46;100297.66;4974168;28;19925;-79
2021/10/14 17:55:42;;;;;;;;;;;;;;;2.15;87.26;100302.03;4951152;28;19929;-80
2021/10/14 17:58:07;;;;;;;;;;;;;;;2.22;87.24;100299.38;4975050;28;19930;-80
2021/10/14 18:00:33;;;;;;;;;;;;;;;2.11;86.86;100291.56;4958131;28;19981;-79
2021/10/14 18:38:13;;;;;;;;;;;;;;;2.11;85.71;100286.34;4973603;28;19928;-80
2021/10/14 18:40:39;;;;;;;;;;;;;;;2.11;85.72;100288.94;4974624;28;20394;-79
2021/10/14 18:43:11;;;;;;;;;;;;;;;2.18;85.62;100282.84;4974338;28;19930;-79
2021/10/14 18:45:38;;;;;;;;;;;;;;;2.17;85.76;100284.59;4974414;28;19918;-80
2021/10/14 18:48:04;;;;;;;;;;;;;;;2.06;85.61;100273.25;4956386;28;19922;-79
2021/10/14 18:50:34;;;;;;;;;;;;;;;2.07;85.42;100280.22;4972489;28;19926;-80
2021/10/14 18:53:01;;;;;;;;;;;;;;;2.04;85.17;100277.59;4955679;28;20297;-80
2021/10/14 18:55:27;;;;;;;;;;;;;;;2.11;85.35;100270.66;4974463;28;19922;-81
2021/10/14 18:57:52;;;;;;;;;;;;;;;2.15;85.55;100275.00;4974592;28;19919;-79
2021/10/14 19:00:19;;;;;;;;;;;;;;;2.06;84.73;100277.59;4974256;28;20386;-79
2021/10/14 19:15:22;;;;;;;;;;;;;;;1.94;84.43;100268.88;4973841;28;20329;-79
2021/10/14 19:18:00;;;;;;;;;;;;;;;2.04;84.76;100266.28;4973781;28;19930;-79
2021/10/14 19:20:48;;;;;;;;;;;;;;;1.93;84.22;100269.78;4956088;28;19924;-79
2021/10/14 20:15:02;;;;;;;;;;;;;;;1.81;83.63;100259.31;4972582;28;20389;-79
2021/10/14 20:20:11;;;;;;;;;;;;;;;1.77;83.41;100257.56;4973104;28;20332;-80
2021/10/14 20:22:38;;;;;;;;;;;;;;;1.80;83.66;100257.56;4954342;28;19918;-80
2021/10/14 20:25:04;;;;;;;;;;;;;;;1.75;83.35;100251.47;4972792;28;19981;-79
2021/10/14 20:27:30;;;;;;;;;;;;;;;1.84;83.77;100256.72;4972573;28;19972;-79
2021/10/14 20:29:56;;;;;;;;;;;;;;;1.84;83.83;100254.09;4970974;28;20329;-79
2021/10/14 20:32:24;;;;;;;;;;;;;;;1.79;83.13;100245.38;4955779;28;19922;-80
2021/10/14 20:35:10;;;;;;;;;;;;;;;1.79;82.52;100248.00;4978134;28;20369;-79
2021/10/14 20:37:35;;;;;;;;;;;;;;;1.83;82.98;100246.25;4977384;28;20522;-79
2021/10/14 20:40:01;;;;;;;;;;;;;;;1.80;83.07;100247.13;4978603;28;20029;-79
2021/10/14 20:42:26;;;;;;;;;;;;;;;1.78;82.68;100238.41;4961224;28;20278;-79
2021/10/14 20:44:52;;;;;;;;;;;;;;;1.77;82.75;100241.88;4979178;28;20601;-79
2021/10/14 20:47:17;;;;;;;;;;;;;;;1.81;82.78;100239.28;4978784;28;20309;-79
2021/10/14 20:49:56;;;;;;;;;;;;;;;1.84;82.81;100241.03;4977360;28;19973;-79
2021/10/14 20:52:23;;;;;;;;;;;;;;;1.91;82.59;100239.28;4959563;28;19933;-80
2021/10/14 20:55:10;;;;;;;;;;;;;;;1.90;82.53;100238.41;4960408;28;19928;-80
2021/10/14 21:02:54;;;;;;;;;;;;;;;1.88;82.86;100228.81;4978126;28;20289;-80
2021/10/14 21:05:25;;;;;;;;;;;;;;;1.97;82.42;100229.69;4978172;28;19931;-80
2021/10/14 21:07:50;;;;;;;;;;;;;;;1.91;82.00;100224.47;4977217;28;19976;-80
2021/10/14 21:10:16;;;;;;;;;;;;;;;1.93;81.86;100225.34;4961465;28;20020;-80
2021/10/14 21:12:42;;;;;;;;;;;;;;;1.95;82.42;100226.22;4978751;28;19922;-80